Time;durP1;ratioP1;P1;durP2;ratioP2;P2;SDS_P1;SDS_P2;PMS_P1;PMS_P2;Temp;Humidity;BMP_temperature;BMP_pressure;BME280_temperature;BME280_humidity;BME280_pressure;Samples;Min_cycle;Max_cycle;Signal;HPM_P1;HPM_P2
2021/08/03 00:01:51;;;;;;;4.53;2.22;;;;;;;;;;5060316;28;20501;-87
2021/08/03 00:04:29;;;;;;;2.72;1.83;;;;;;;;;;5076140;28;20067;-87
2021/08/03 00:07:01;;;;;;;3.67;1.90;;;;;;;;;;5059974;28;20080;-87
2021/08/03 00:09:31;;;;;;;4.68;1.90;;;;;;;;;;5076504;28;20044;-87
2021/08/03 00:11:56;;;;;;;4.35;1.75;;;;;;;;;;5059076;28;20064;-87
2021/08/03 00:14:22;;;;;;;6.45;1.98;;;;;;;;;;5069419;28;20562;-87
2021/08/03 00:16:48;;;;;;;3.55;1.75;;;;;;;;;;5097848;28;20035;-87
2021/08/03 00:19:14;;;;;;;5.30;1.70;;;;;;;;;;5095775;28;20028;-87
2021/08/03 00:21:39;;;;;;;5.00;1.98;;;;;;;;;;5079032;28;20035;-87
2021/08/03 00:24:06;;;;;;;4.82;2.03;;;;;;;;;;5079474;28;20451;-87
2021/08/03 00:26:32;;;;;;;2.15;1.67;;;;;;;;;;5095689;28;20036;-87
2021/08/03 00:28:58;;;;;;;6.10;1.95;;;;;;;;;;5078587;28;20028;-87
2021/08/03 00:31:25;;;;;;;7.30;2.15;;;;;;;;;;5095659;28;20062;-89
2021/08/03 00:33:53;;;;;;;9.95;2.00;;;;;;;;;;5078673;28;20069;-88
2021/08/03 00:36:20;;;;;;;2.60;1.95;;;;;;;;;;5095186;28;20535;-88
2021/08/03 00:38:53;;;;;;;2.10;1.65;;;;;;;;;;5079263;28;20123;-87
2021/08/03 00:41:24;;;;;;;6.63;2.03;;;;;;;;;;5078576;28;20089;-87
2021/08/03 00:43:55;;;;;;;6.88;2.30;;;;;;;;;;5076977;28;20051;-87
2021/08/03 00:46:21;;;;;;;9.52;2.03;;;;;;;;;;5076881;28;20066;-87
2021/08/03 00:48:49;;;;;;;6.80;1.98;;;;;;;;;;5076923;28;20059;-87
2021/08/03 00:51:14;;;;;;;8.68;2.30;;;;;;;;;;5077635;28;20028;-88
2021/08/03 00:53:43;;;;;;;3.70;1.85;;;;;;;;;;5077412;28;20032;-88
2021/08/03 00:56:10;;;;;;;5.03;2.20;;;;;;;;;;5078059;28;20034;-87
2021/08/03 00:58:40;;;;;;;3.13;2.00;;;;;;;;;;5094808;28;20039;-87
2021/08/03 01:01:08;;;;;;;5.68;2.15;;;;;;;;;;5077713;28;20039;-87
2021/08/03 01:03:34;;;;;;;7.38;2.00;;;;;;;;;;5094561;28;20039;-88
2021/08/03 01:06:29;;;;;;;4.07;1.80;;;;;;;;;;5076628;28;20040;-88
2021/08/03 01:09:02;;;;;;;4.80;2.30;;;;;;;;;;5093223;28;20032;-87
2021/08/03 01:11:53;;;;;;;4.53;1.90;;;;;;;;;;5093058;28;20508;-88
2021/08/03 01:14:33;;;;;;;5.30;1.98;;;;;;;;;;5076382;28;20061;-87
2021/08/03 01:17:12;;;;;;;4.00;1.83;;;;;;;;;;5075766;28;20028;-88
2021/08/03 01:19:50;;;;;;;4.60;1.73;;;;;;;;;;5093019;28;20787;-88
2021/08/03 01:22:44;;;;;;;2.40;1.40;;;;;;;;;;5076242;28;20034;-88
2021/08/03 01:25:31;;;;;;;1.77;1.40;;;;;;;;;;5076199;28;20044;-88
2021/08/03 01:28:01;;;;;;;8.70;2.70;;;;;;;;;;5076263;28;20039;-88
2021/08/03 01:30:28;;;;;;;8.15;2.00;;;;;;;;;;5076623;28;20189;-86
2021/08/03 01:32:56;;;;;;;6.75;2.00;;;;;;;;;;5093567;28;20079;-88
2021/08/03 01:35:24;;;;;;;5.20;1.73;;;;;;;;;;5093456;28;20680;-88
2021/08/03 01:38:00;;;;;;;2.63;1.85;;;;;;;;;;5076653;28;20036;-87
2021/08/03 01:40:28;;;;;;;3.92;1.80;;;;;;;;;;5092906;28;20059;-88
2021/08/03 01:42:55;;;;;;;5.25;2.03;;;;;;;;;;5092924;28;20089;-88
2021/08/03 01:45:23;;;;;;;4.30;1.75;;;;;;;;;;5085153;28;20027;-88
2021/08/03 01:47:54;;;;;;;9.05;2.20;;;;;;;;;;5097637;28;20051;-87
2021/08/03 01:50:25;;;;;;;7.35;2.00;;;;;;;;;;5097131;28;20035;-87
2021/08/03 01:52:58;;;;;;;3.67;1.90;;;;;;;;;;5098034;28;20039;-88
2021/08/03 01:55:32;;;;;;;3.80;2.03;;;;;;;;;;5096708;28;20032;-87
2021/08/03 01:58:04;;;;;;;8.73;1.98;;;;;;;;;;5096934;28;20442;-88
2021/08/03 02:00:42;;;;;;;5.13;1.70;;;;;;;;;;5113782;28;20046;-88
2021/08/03 02:03:13;;;;;;;4.05;2.25;;;;;;;;;;5097397;28;20027;-88
2021/08/03 02:05:50;;;;;;;5.05;2.28;;;;;;;;;;5096914;28;20063;-86
2021/08/03 02:08:25;;;;;;;5.00;2.20;;;;;;;;;;5098873;28;20511;-87
2021/08/03 02:11:05;;;;;;;2.28;1.98;;;;;;;;;;5100244;28;20488;-87
2021/08/03 02:13:32;;;;;;;9.90;2.20;;;;;;;;;;5115179;28;20035;-87
2021/08/03 02:15:58;;;;;;;4.95;2.08;;;;;;;;;;5079863;28;20091;-80
2021/08/03 02:18:25;;;;;;;3.65;1.88;;;;;;;;;;5078667;28;20039;-86
2021/08/03 02:20:55;;;;;;;4.68;2.25;;;;;;;;;;5075633;28;20397;-86
2021/08/03 02:23:26;;;;;;;3.58;2.28;;;;;;;;;;5077443;28;20158;-81
2021/08/03 02:25:58;;;;;;;7.35;2.20;;;;;;;;;;5080301;28;20082;-84
2021/08/03 02:28:24;;;;;;;7.72;2.42;;;;;;;;;;5097057;28;20558;-83
2021/08/03 02:30:53;;;;;;;5.53;1.90;;;;;;;;;;5097831;28;20046;-84
2021/08/03 02:33:26;;;;;;;5.10;2.30;;;;;;;;;;5096263;28;20497;-83
2021/08/03 02:35:59;;;;;;;5.55;2.30;;;;;;;;;;5084108;28;20028;-84
2021/08/03 02:38:28;;;;;;;7.25;2.20;;;;;;;;;;5083636;28;20036;-83
2021/08/03 02:40:54;;;;;;;5.47;2.75;;;;;;;;;;5100801;28;20028;-83
2021/08/03 02:43:27;;;;;;;6.53;2.25;;;;;;;;;;5084233;28;20508;-83
2021/08/03 02:45:58;;;;;;;9.35;3.10;;;;;;;;;;5118368;28;20099;-84
2021/08/03 02:48:25;;;;;;;4.10;2.25;;;;;;;;;;5101841;28;20033;-83
2021/08/03 02:50:51;;;;;;;6.93;2.40;;;;;;;;;;5079013;28;20036;-83
2021/08/03 02:53:24;;;;;;;3.35;1.80;;;;;;;;;;5077287;28;20040;-84
2021/08/03 02:55:54;;;;;;;8.82;2.70;;;;;;;;;;5076936;28;20398;-84
2021/08/03 02:58:27;;;;;;;6.40;2.05;;;;;;;;;;5078939;28;20052;-84
2021/08/03 03:00:52;;;;;;;3.17;1.83;;;;;;;;;;5078421;28;20028;-82
2021/08/03 03:03:23;;;;;;;2.63;1.75;;;;;;;;;;5079320;28;20029;-82
2021/08/03 03:05:54;;;;;;;6.15;1.92;;;;;;;;;;5062511;28;20123;-83
2021/08/03 03:08:23;;;;;;;2.55;1.60;;;;;;;;;;5095264;28;20036;-83
2021/08/03 03:10:53;;;;;;;4.18;1.80;;;;;;;;;;5078125;28;20037;-84
2021/08/03 03:13:28;;;;;;;2.03;1.45;;;;;;;;;;5081280;28;20026;-84
2021/08/03 03:15:56;;;;;;;5.43;1.65;;;;;;;;;;5098277;28;20031;-84
2021/08/03 03:18:22;;;;;;;4.22;1.88;;;;;;;;;;5081108;28;20077;-83
2021/08/03 03:20:49;;;;;;;4.18;2.15;;;;;;;;;;5081322;28;20119;-83
2021/08/03 03:23:18;;;;;;;4.10;2.30;;;;;;;;;;5097563;28;20032;-83
2021/08/03 03:25:44;;;;;;;6.00;2.67;;;;;;;;;;5080754;28;20482;-83
2021/08/03 03:28:12;;;;;;;4.68;2.17;;;;;;;;;;5080593;28;20024;-83
2021/08/03 03:30:39;;;;;;;2.83;1.65;;;;;;;;;;5080102;28;20038;-83
2021/08/03 03:33:06;;;;;;;3.40;1.60;;;;;;;;;;5080492;28;20051;-83
2021/08/03 03:35:37;;;;;;;2.28;1.58;;;;;;;;;;5096912;28;20485;-83
2021/08/03 03:38:04;;;;;;;3.92;1.80;;;;;;;;;;5097435;28;20036;-83
2021/08/03 03:40:30;;;;;;;3.58;1.80;;;;;;;;;;5079583;28;20028;-83
2021/08/03 03:42:58;;;;;;;4.95;2.08;;;;;;;;;;5077269;28;20036;-83
2021/08/03 03:45:25;;;;;;;2.65;2.25;;;;;;;;;;5058971;28;20032;-83
2021/08/03 03:47:58;;;;;;;6.70;2.13;;;;;;;;;;5059499;28;20444;-83
2021/08/03 03:50:45;;;;;;;5.13;2.03;;;;;;;;;;5059408;28;20095;-83
2021/08/03 03:53:20;;;;;;;7.03;2.17;;;;;;;;;;5060407;28;20441;-83
2021/08/03 03:55:52;;;;;;;4.68;2.00;;;;;;;;;;5059623;28;20070;-84
2021/08/03 03:58:19;;;;;;;3.88;1.83;;;;;;;;;;5059622;28;20036;-84
2021/08/03 04:00:48;;;;;;;4.95;2.28;;;;;;;;;;5059918;28;20123;-84
2021/08/03 04:03:18;;;;;;;3.30;1.90;;;;;;;;;;5076576;28;20032;-84
2021/08/03 04:05:45;;;;;;;6.90;2.53;;;;;;;;;;5059191;28;20081;-84
2021/08/03 04:08:11;;;;;;;3.97;2.30;;;;;;;;;;5059514;28;20090;-84
2021/08/03 04:10:39;;;;;;;10.00;2.58;;;;;;;;;;5059776;28;20036;-83
2021/08/03 04:13:08;;;;;;;4.05;2.33;;;;;;;;;;5064636;28;20039;-83
2021/08/03 04:15:34;;;;;;;10.77;2.00;;;;;;;;;;5079600;28;20028;-84
2021/08/03 04:18:02;;;;;;;4.40;1.80;;;;;;;;;;5097502;28;20032;-83
2021/08/03 04:20:28;;;;;;;5.82;1.80;;;;;;;;;;5096968;28;20031;-84
2021/08/03 04:22:54;;;;;;;4.72;2.10;;;;;;;;;;5095878;28;20401;-83
2021/08/03 04:25:19;;;;;;;9.60;2.92;;;;;;;;;;5095812;28;20122;-83
2021/08/03 04:27:45;;;;;;;2.92;2.38;;;;;;;;;;5078983;28;20031;-84
2021/08/03 04:30:14;;;;;;;6.85;2.72;;;;;;;;;;5079001;28;20644;-84
2021/08/03 04:32:40;;;;;;;5.45;2.47;;;;;;;;;;5078489;28;20052;-84
2021/08/03 04:35:06;;;;;;;4.82;2.28;;;;;;;;;;5096205;28;20031;-84
2021/08/03 04:37:37;;;;;;;6.80;2.70;;;;;;;;;;5079693;28;20481;-84
2021/08/03 04:40:03;;;;;;;3.05;2.20;;;;;;;;;;5096699;28;20028;-84
2021/08/03 04:42:28;;;;;;;5.35;2.22;;;;;;;;;;5096919;28;20397;-84
2021/08/03 04:44:53;;;;;;;4.82;2.47;;;;;;;;;;5097920;28;20032;-83
2021/08/03 04:47:19;;;;;;;5.70;2.30;;;;;;;;;;5096499;28;20042;-84
2021/08/03 04:49:45;;;;;;;4.80;2.20;;;;;;;;;;5081237;28;20040;-84
2021/08/03 04:52:10;;;;;;;5.47;2.42;;;;;;;;;;5099485;28;20248;-84
2021/08/03 04:54:36;;;;;;;4.78;2.17;;;;;;;;;;5098913;28;20040;-84
2021/08/03 04:57:01;;;;;;;5.75;2.42;;;;;;;;;;5081374;28;20028;-85
2021/08/03 04:59:27;;;;;;;7.78;3.42;;;;;;;;;;5081795;28;20050;-84
2021/08/03 05:01:53;;;;;;;4.45;3.03;;;;;;;;;;5098978;28;20039;-83
2021/08/03 05:04:18;;;;;;;10.50;2.70;;;;;;;;;;5080781;28;20065;-84
2021/08/03 05:06:43;;;;;;;2.40;2.20;;;;;;;;;;5098048;28;20028;-84
2021/08/03 05:09:09;;;;;;;3.97;2.50;;;;;;;;;;5081301;28;20375;-84
2021/08/03 05:11:35;;;;;;;5.20;2.63;;;;;;;;;;5098974;28;20060;-84
2021/08/03 05:14:01;;;;;;;4.47;2.78;;;;;;;;;;5081210;28;20426;-84
2021/08/03 05:16:29;;;;;;;3.55;2.33;;;;;;;;;;5092088;28;20040;-84
2021/08/03 05:18:55;;;;;;;4.60;2.65;;;;;;;;;;5077749;28;20032;-84
2021/08/03 05:21:20;;;;;;;5.55;2.70;;;;;;;;;;5078999;28;20055;-84
2021/08/03 05:23:45;;;;;;;8.00;2.95;;;;;;;;;;5077902;28;20464;-84
2021/08/03 05:26:11;;;;;;;5.45;2.78;;;;;;;;;;5061189;28;20032;-84
2021/08/03 05:28:36;;;;;;;7.72;2.75;;;;;;;;;;5061236;28;20036;-84
2021/08/03 05:31:02;;;;;;;3.10;2.70;;;;;;;;;;5061036;28;20048;-84
2021/08/03 05:33:27;;;;;;;5.63;2.63;;;;;;;;;;5060825;28;20136;-84
2021/08/03 05:35:52;;;;;;;4.97;3.10;;;;;;;;;;5060926;28;20028;-83
2021/08/03 05:38:18;;;;;;;13.38;3.42;;;;;;;;;;5078742;28;20036;-84
2021/08/03 05:40:43;;;;;;;3.47;2.60;;;;;;;;;;5063784;28;20039;-84
2021/08/03 05:43:08;;;;;;;4.88;3.00;;;;;;;;;;5080012;28;20064;-84
2021/08/03 05:45:35;;;;;;;6.85;3.20;;;;;;;;;;5081110;28;20032;-84
2021/08/03 05:48:00;;;;;;;6.88;3.03;;;;;;;;;;5081898;28;20032;-85
2021/08/03 05:50:26;;;;;;;9.50;3.38;;;;;;;;;;5097994;28;20115;-84
2021/08/03 05:52:51;;;;;;;7.15;3.03;;;;;;;;;;5079971;28;20047;-84
2021/08/03 05:55:17;;;;;;;6.40;3.17;;;;;;;;;;5096295;28;20035;-84
2021/08/03 05:57:42;;;;;;;5.70;3.22;;;;;;;;;;5080788;28;20036;-84
2021/08/03 06:00:09;;;;;;;4.32;3.00;;;;;;;;;;5079791;28;20028;-84
2021/08/03 06:02:41;;;;;;;5.15;2.92;;;;;;;;;;5097574;28;20035;-84
2021/08/03 06:05:07;;;;;;;8.48;3.22;;;;;;;;;;5096747;28;20089;-84
2021/08/03 06:07:38;;;;;;;5.47;2.97;;;;;;;;;;5080099;28;20032;-84
2021/08/03 06:10:04;;;;;;;4.07;2.85;;;;;;;;;;5083674;28;20428;-84
2021/08/03 06:12:33;;;;;;;7.88;3.63;;;;;;;;;;5101213;28;20036;-84
2021/08/03 06:15:02;;;;;;;6.50;3.38;;;;;;;;;;5081100;28;20084;-84
2021/08/03 06:17:38;;;;;;;8.13;3.22;;;;;;;;;;5083325;28;20378;-84
2021/08/03 06:20:07;;;;;;;7.53;3.70;;;;;;;;;;5100448;28;20370;-83
2021/08/03 06:22:37;;;;;;;8.40;3.60;;;;;;;;;;5084345;28;20036;-84
2021/08/03 06:25:07;;;;;;;7.45;4.45;;;;;;;;;;5100305;28;20059;-84
2021/08/03 06:27:33;;;;;;;6.75;3.75;;;;;;;;;;5101433;28;20032;-84
2021/08/03 06:30:07;;;;;;;5.07;3.42;;;;;;;;;;5083561;28;20123;-83
2021/08/03 06:32:33;;;;;;;11.82;3.83;;;;;;;;;;5081553;28;20044;-84
2021/08/03 06:34:59;;;;;;;5.70;4.00;;;;;;;;;;5099203;28;20032;-84
2021/08/03 06:37:25;;;;;;;6.68;4.28;;;;;;;;;;5099476;28;20459;-84
2021/08/03 06:39:51;;;;;;;5.10;3.72;;;;;;;;;;5099957;28;20187;-84
2021/08/03 06:42:34;;;;;;;7.05;3.80;;;;;;;;;;5066594;28;20029;-84
2021/08/03 06:45:14;;;;;;;7.10;4.45;;;;;;;;;;5062863;28;20075;-83
2021/08/03 06:48:04;;;;;;;7.65;4.70;;;;;;;;;;5074312;28;20058;-84
2021/08/03 06:50:34;;;;;;;6.88;3.95;;;;;;;;;;5100663;28;20035;-84
2021/08/03 06:53:01;;;;;;;6.88;4.70;;;;;;;;;;5084388;28;20040;-84
2021/08/03 06:55:30;;;;;;;6.65;4.88;;;;;;;;;;5083511;28;20396;-81
2021/08/03 06:58:00;;;;;;;10.82;5.32;;;;;;;;;;5085243;28;20382;-81
2021/08/03 07:00:26;;;;;;;9.73;5.15;;;;;;;;;;5080516;28;20497;-76
2021/08/03 07:02:53;;;;;;;11.77;5.40;;;;;;;;;;5098368;28;20045;-81
2021/08/03 07:05:25;;;;;;;6.75;3.90;;;;;;;;;;5097548;28;20393;-79
2021/08/03 07:07:58;;;;;;;7.57;4.70;;;;;;;;;;5097754;28;20032;-80
2021/08/03 07:10:24;;;;;;;7.65;4.75;;;;;;;;;;5097587;28;20067;-79
2021/08/03 07:12:53;;;;;;;8.48;5.13;;;;;;;;;;5097981;28;20059;-78
2021/08/03 07:15:19;;;;;;;11.48;5.38;;;;;;;;;;5082069;28;20546;-80
2021/08/03 07:17:46;;;;;;;9.90;5.30;;;;;;;;;;5093954;28;20039;-81
2021/08/03 07:20:12;;;;;;;8.93;4.15;;;;;;;;;;5101985;28;20042;-80
2021/08/03 07:22:39;;;;;;;5.95;4.47;;;;;;;;;;5101755;28;20039;-79
2021/08/03 07:25:05;;;;;;;10.80;4.78;;;;;;;;;;5117464;28;20024;-81
2021/08/03 07:27:31;;;;;;;10.77;5.78;;;;;;;;;;5101622;28;20477;-81
2021/08/03 07:29:56;;;;;;;5.78;3.95;;;;;;;;;;5100253;28;20039;-78
2021/08/03 07:32:22;;;;;;;8.00;5.40;;;;;;;;;;5118236;28;20503;-79
2021/08/03 07:34:47;;;;;;;6.05;4.70;;;;;;;;;;5100727;28;20062;-78
2021/08/03 07:37:13;;;;;;;11.27;5.82;;;;;;;;;;5099948;28;20080;-79
2021/08/03 07:39:39;;;;;;;7.93;6.43;;;;;;;;;;5116311;28;20065;-79
2021/08/03 07:42:06;;;;;;;15.70;8.80;;;;;;;;;;5098544;28;20036;-79
2021/08/03 07:44:31;;;;;;;19.00;10.77;;;;;;;;;;5115511;28;20147;-80
2021/08/03 07:46:57;;;;;;;11.35;8.40;;;;;;;;;;5101717;28;20170;-77
2021/08/03 07:49:22;;;;;;;16.10;8.85;;;;;;;;;;5074803;28;20040;-77
2021/08/03 07:51:48;;;;;;;17.25;9.80;;;;;;;;;;5075107;28;20032;-77
2021/08/03 07:54:14;;;;;;;15.80;9.23;;;;;;;;;;5074081;28;20024;-77
2021/08/03 07:56:40;;;;;;;15.95;9.65;;;;;;;;;;5059107;28;20111;-79
2021/08/03 07:59:06;;;;;;;14.00;8.20;;;;;;;;;;5092679;28;20451;-78
2021/08/03 08:01:33;;;;;;;14.88;8.73;;;;;;;;;;5075231;28;20549;-77
2021/08/03 08:03:59;;;;;;;14.68;8.00;;;;;;;;;;5089750;28;20416;-76
2021/08/03 08:06:25;;;;;;;10.82;6.30;;;;;;;;;;5056514;28;20028;-76
2021/08/03 08:08:50;;;;;;;13.23;7.15;;;;;;;;;;5073339;28;20036;-77
2021/08/03 08:11:16;;;;;;;12.05;6.60;;;;;;;;;;5090860;28;20053;-78
2021/08/03 08:13:41;;;;;;;9.43;5.47;;;;;;;;;;5075309;28;20040;-78
2021/08/03 08:16:07;;;;;;;8.68;6.13;;;;;;;;;;5071387;28;20027;-77
2021/08/03 08:18:32;;;;;;;7.85;4.78;;;;;;;;;;5095250;28;20393;-78
2021/08/03 08:20:58;;;;;;;11.38;6.97;;;;;;;;;;5094138;28;20047;-79
2021/08/03 08:23:23;;;;;;;10.32;4.32;;;;;;;;;;5077944;28;20036;-78
2021/08/03 08:25:49;;;;;;;6.65;3.53;;;;;;;;;;5096392;28;20043;-78
2021/08/03 08:28:15;;;;;;;12.98;7.18;;;;;;;;;;5078311;28;20130;-78
2021/08/03 08:30:40;;;;;;;11.32;5.18;;;;;;;;;;5094892;28;20028;-78
2021/08/03 08:33:07;;;;;;;10.15;4.65;;;;;;;;;;5076852;28;20079;-78
2021/08/03 08:35:33;;;;;;;7.25;4.07;;;;;;;;;;5077670;28;20047;-77
2021/08/03 08:37:59;;;;;;;5.88;4.40;;;;;;;;;;5095322;28;20036;-78
2021/08/03 08:40:25;;;;;;;5.88;3.72;;;;;;;;;;5094834;28;20040;-77
2021/08/03 08:42:50;;;;;;;6.78;4.32;;;;;;;;;;5077903;28;20040;-78
2021/08/03 08:45:17;;;;;;;8.57;3.85;;;;;;;;;;5094467;28;20107;-77
2021/08/03 08:47:47;;;;;;;7.15;3.97;;;;;;;;;;5094341;28;20123;-77
2021/08/03 08:50:15;;;;;;;9.05;4.38;;;;;;;;;;5094846;28;20032;-78
2021/08/03 08:52:41;;;;;;;7.05;4.00;;;;;;;;;;5096259;28;20032;-77
2021/08/03 08:55:08;;;;;;;5.50;3.92;;;;;;;;;;5078459;28;20036;-78
2021/08/03 08:57:34;;;;;;;7.65;4.22;;;;;;;;;;5077699;28;20110;-78
2021/08/03 09:00:00;;;;;;;10.93;3.78;;;;;;;;;;5096633;28;20490;-78
2021/08/03 09:02:45;;;;;;;7.55;3.75;;;;;;;;;;5095439;28;20479;-78
2021/08/03 09:05:12;;;;;;;7.70;3.80;;;;;;;;;;5095370;28;20058;-78
2021/08/03 09:07:58;;;;;;;9.55;4.10;;;;;;;;;;5077899;28;20130;-78
2021/08/03 09:10:39;;;;;;;6.53;3.70;;;;;;;;;;5095300;28;20032;-78
2021/08/03 09:13:12;;;;;;;6.55;4.03;;;;;;;;;;5096022;28;20290;-78
2021/08/03 09:15:40;;;;;;;10.70;3.95;;;;;;;;;;5076687;28;20036;-78
2021/08/03 09:18:13;;;;;;;7.38;2.85;;;;;;;;;;5076909;28;20028;-78
2021/08/03 09:20:40;;;;;;;4.80;2.83;;;;;;;;;;5075708;28;20055;-79
2021/08/03 09:23:06;;;;;;;6.68;2.75;;;;;;;;;;5058391;28;20127;-78
2021/08/03 09:25:31;;;;;;;5.78;2.60;;;;;;;;;;5076476;28;20063;-78
2021/08/03 09:28:03;;;;;;;4.90;2.65;;;;;;;;;;5075113;28;20036;-78
2021/08/03 09:30:33;;;;;;;4.05;1.70;;;;;;;;;;5058686;28;20029;-78
2021/08/03 09:32:59;;;;;;;4.85;1.60;;;;;;;;;;5075829;28;20051;-78
2021/08/03 09:35:26;;;;;;;7.20;1.70;;;;;;;;;;5057890;28;20039;-78
2021/08/03 09:37:52;;;;;;;6.30;2.53;;;;;;;;;;5058405;28;20037;-78
2021/08/03 09:40:33;;;;;;;6.47;2.45;;;;;;;;;;5076131;28;20040;-78
2021/08/03 09:43:10;;;;;;;4.82;1.55;;;;;;;;;;5076550;28;20033;-78
2021/08/03 09:45:58;;;;;;;5.05;1.63;;;;;;;;;;5082004;28;20040;-78
2021/08/03 09:48:26;;;;;;;6.60;2.10;;;;;;;;;;5099089;28;20038;-78
2021/08/03 09:51:08;;;;;;;7.53;1.92;;;;;;;;;;5098854;28;20075;-79
2021/08/03 09:53:43;;;;;;;5.10;1.92;;;;;;;;;;5098772;28;20392;-79
2021/08/03 09:56:11;;;;;;;5.23;1.70;;;;;;;;;;5098904;28;20040;-78
2021/08/03 09:58:56;;;;;;;8.43;1.83;;;;;;;;;;5100120;28;20043;-78
2021/08/03 10:01:25;;;;;;;9.23;1.70;;;;;;;;;;5081500;28;20043;-78
2021/08/03 10:03:52;;;;;;;7.38;1.90;;;;;;;;;;5098621;28;20117;-79
2021/08/03 10:06:18;;;;;;;5.75;1.83;;;;;;;;;;5081661;28;20062;-78
2021/08/03 10:08:45;;;;;;;7.25;2.50;;;;;;;;;;5098290;28;20036;-78
2021/08/03 10:11:13;;;;;;;7.38;2.33;;;;;;;;;;5081350;28;20055;-78
2021/08/03 10:13:39;;;;;;;5.40;1.80;;;;;;;;;;5097520;28;20040;-78
2021/08/03 10:16:05;;;;;;;3.13;1.42;;;;;;;;;;5097527;28;20032;-80
2021/08/03 10:18:31;;;;;;;5.22;1.77;;;;;;;;;;5099476;28;20478;-81
2021/08/03 10:20:57;;;;;;;6.15;1.83;;;;;;;;;;5082553;28;20039;-81
2021/08/03 10:23:22;;;;;;;9.40;2.28;;;;;;;;;;5099508;28;20043;-79
2021/08/03 10:25:48;;;;;;;6.70;2.25;;;;;;;;;;5100128;28;20040;-79
2021/08/03 10:28:22;;;;;;;5.60;2.00;;;;;;;;;;5082878;28;20054;-79
2021/08/03 10:30:48;;;;;;;5.57;2.05;;;;;;;;;;5099861;28;20122;-79
2021/08/03 10:33:40;;;;;;;3.60;1.63;;;;;;;;;;5099137;28;20047;-79
2021/08/03 10:36:06;;;;;;;6.38;1.67;;;;;;;;;;5082686;28;20036;-79
2021/08/03 10:38:32;;;;;;;6.25;2.05;;;;;;;;;;5082752;28;20016;-79
2021/08/03 10:41:16;;;;;;;6.03;1.90;;;;;;;;;;5100334;28;20027;-79
2021/08/03 10:43:48;;;;;;;2.80;1.52;;;;;;;;;;5082037;28;20036;-79
2021/08/03 10:46:13;;;;;;;6.78;2.00;;;;;;;;;;5098933;28;20036;-79
2021/08/03 10:48:39;;;;;;;5.28;1.70;;;;;;;;;;5082381;28;20036;-79
2021/08/03 10:51:16;;;;;;;3.92;1.58;;;;;;;;;;5082469;28;20040;-79
2021/08/03 10:54:13;;;;;;;4.35;1.73;;;;;;;;;;5081745;28;20082;-79
2021/08/03 10:57:08;;;;;;;5.25;1.77;;;;;;;;;;5081525;28;20493;-78
2021/08/03 10:59:35;;;;;;;3.92;1.52;;;;;;;;;;5089700;28;20416;-79
2021/08/03 11:02:06;;;;;;;2.40;1.48;;;;;;;;;;5098471;28;20105;-79
2021/08/03 11:04:40;;;;;;;7.05;1.83;;;;;;;;;;5098571;28;20443;-79
2021/08/03 11:07:24;;;;;;;5.00;1.83;;;;;;;;;;5081690;28;20067;-79
2021/08/03 11:09:51;;;;;;;3.22;1.48;;;;;;;;;;5098313;28;20781;-79
2021/08/03 11:12:46;;;;;;;3.58;1.65;;;;;;;;;;5105017;28;20062;-79
2021/08/03 11:15:24;;;;;;;4.00;1.73;;;;;;;;;;5118025;28;20053;-79
2021/08/03 11:18:04;;;;;;;3.40;2.00;;;;;;;;;;5101037;28;20038;-79
2021/08/03 11:20:37;;;;;;;5.88;2.00;;;;;;;;;;5101278;28;20031;-79
2021/08/03 11:23:04;;;;;;;5.32;2.53;;;;;;;;;;5118282;28;20088;-79
2021/08/03 11:25:30;;;;;;;4.32;2.03;;;;;;;;;;5100331;28;20073;-80
2021/08/03 11:28:19;;;;;;;7.00;2.42;;;;;;;;;;5102879;28;20042;-82
2021/08/03 11:30:48;;;;;;;5.72;2.30;;;;;;;;;;5119607;28;20038;-82
2021/08/03 11:33:15;;;;;;;6.85;2.33;;;;;;;;;;5119838;28;20490;-83
2021/08/03 11:35:41;;;;;;;4.60;2.47;;;;;;;;;;5119661;28;20028;-79
2021/08/03 11:38:11;;;;;;;7.13;3.22;;;;;;;;;;5102199;28;20084;-79
2021/08/03 11:40:38;;;;;;;5.78;2.42;;;;;;;;;;5120597;28;20035;-79
2021/08/03 11:43:04;;;;;;;6.90;3.10;;;;;;;;;;5105956;28;20039;-80
2021/08/03 11:45:30;;;;;;;7.35;2.22;;;;;;;;;;5098445;28;20508;-79
2021/08/03 11:47:58;;;;;;;5.03;2.45;;;;;;;;;;5099049;28;20032;-79
2021/08/03 11:50:32;;;;;;;6.05;2.45;;;;;;;;;;5082128;28;20055;-79
2021/08/03 11:53:16;;;;;;;6.07;1.67;;;;;;;;;;5081966;28;20040;-79
2021/08/03 11:55:46;;;;;;;5.78;2.70;;;;;;;;;;5081797;28;20057;-79
2021/08/03 11:58:17;;;;;;;6.18;2.30;;;;;;;;;;5100108;28;20040;-79
2021/08/03 12:00:42;;;;;;;5.38;2.30;;;;;;;;;;5081191;28;20089;-79
2021/08/03 12:03:08;;;;;;;10.27;2.80;;;;;;;;;;5081711;28;20036;-78
2021/08/03 12:05:35;;;;;;;4.75;2.45;;;;;;;;;;5080829;28;20043;-79
2021/08/03 12:08:14;;;;;;;5.82;2.70;;;;;;;;;;5097857;28;20040;-79
2021/08/03 12:10:44;;;;;;;4.40;2.30;;;;;;;;;;5081734;28;20130;-79
2021/08/03 12:13:25;;;;;;;5.20;1.67;;;;;;;;;;5098605;28;20084;-79
2021/08/03 12:15:53;;;;;;;3.30;1.73;;;;;;;;;;5061120;28;20036;-82
2021/08/03 12:18:19;;;;;;;3.00;2.20;;;;;;;;;;5076067;28;20040;-80
2021/08/03 12:20:55;;;;;;;5.32;2.80;;;;;;;;;;5059766;28;20035;-81
2021/08/03 12:23:30;;;;;;;7.22;2.75;;;;;;;;;;5078184;28;20059;-83
2021/08/03 12:25:57;;;;;;;2.92;2.08;;;;;;;;;;5078638;28;20044;-78
2021/08/03 12:28:37;;;;;;;4.70;2.22;;;;;;;;;;5058919;28;20470;-78
2021/08/03 12:31:30;;;;;;;5.20;2.22;;;;;;;;;;5075512;28;20036;-77
2021/08/03 12:34:18;;;;;;;5.80;2.22;;;;;;;;;;5076176;28;20137;-77
2021/08/03 12:36:55;;;;;;;4.90;1.92;;;;;;;;;;5073495;28;20066;-81
2021/08/03 12:39:42;;;;;;;7.00;3.45;;;;;;;;;;5079327;28;20051;-79
2021/08/03 12:42:24;;;;;;;4.35;2.13;;;;;;;;;;5076548;28;20043;-82
2021/08/03 12:44:51;;;;;;;3.58;1.90;;;;;;;;;;5103230;28;20038;-83
2021/08/03 12:47:23;;;;;;;3.28;1.77;;;;;;;;;;5117747;28;20046;-80
2021/08/03 12:49:50;;;;;;;5.82;1.98;;;;;;;;;;5102208;28;20031;-83
2021/08/03 12:52:18;;;;;;;6.43;2.00;;;;;;;;;;5100250;28;20035;-82
2021/08/03 12:55:08;;;;;;;1.70;1.55;;;;;;;;;;5116402;28;20042;-78
2021/08/03 12:57:48;;;;;;;5.30;1.92;;;;;;;;;;5117667;28;20484;-80
2021/08/03 13:00:39;;;;;;;8.48;2.15;;;;;;;;;;5101207;28;20055;-80
2021/08/03 13:03:07;;;;;;;5.13;2.30;;;;;;;;;;5118693;28;20032;-80
2021/08/03 13:05:32;;;;;;;7.07;3.08;;;;;;;;;;5101159;28;20039;-79
2021/08/03 13:07:58;;;;;;;4.38;2.45;;;;;;;;;;5118907;28;20031;-79
2021/08/03 13:10:24;;;;;;;7.43;2.60;;;;;;;;;;5118380;28;20042;-79
2021/08/03 13:12:49;;;;;;;6.03;2.30;;;;;;;;;;5115385;28;20055;-79
2021/08/03 13:15:15;;;;;;;6.30;2.08;;;;;;;;;;5061300;28;20032;-79
2021/08/03 13:17:40;;;;;;;4.70;2.38;;;;;;;;;;5078615;28;20028;-80
2021/08/03 13:20:07;;;;;;;9.18;2.90;;;;;;;;;;5077527;28;20036;-80
2021/08/03 13:22:36;;;;;;;10.27;3.03;;;;;;;;;;5065536;28;20040;-79
2021/08/03 13:25:04;;;;;;;6.63;2.55;;;;;;;;;;5072347;28;20467;-80
2021/08/03 13:27:29;;;;;;;6.95;2.13;;;;;;;;;;5080939;28;20024;-80
2021/08/03 13:29:55;;;;;;;3.40;2.33;;;;;;;;;;5080027;28;20031;-80
2021/08/03 13:32:21;;;;;;;3.72;2.05;;;;;;;;;;5079998;28;20409;-80
2021/08/03 13:34:46;;;;;;;5.35;2.63;;;;;;;;;;5096477;28;20428;-80
2021/08/03 13:37:11;;;;;;;4.80;2.10;;;;;;;;;;5079781;28;20465;-80
2021/08/03 13:39:37;;;;;;;6.47;2.30;;;;;;;;;;5097590;28;20028;-81
2021/08/03 13:42:03;;;;;;;4.55;2.35;;;;;;;;;;5097159;28;20139;-81
2021/08/03 13:44:28;;;;;;;6.70;2.80;;;;;;;;;;5075699;28;20054;-81
2021/08/03 13:46:54;;;;;;;8.13;1.95;;;;;;;;;;5076599;28;20171;-81
2021/08/03 13:49:20;;;;;;;10.38;3.35;;;;;;;;;;5075972;28;20036;-81
2021/08/03 13:51:45;;;;;;;3.72;2.00;;;;;;;;;;5077286;28;20032;-81
2021/08/03 13:54:10;;;;;;;3.90;2.17;;;;;;;;;;5076398;28;20032;-81
2021/08/03 13:56:36;;;;;;;8.68;2.35;;;;;;;;;;5076371;28;20044;-81
2021/08/03 13:59:02;;;;;;;4.00;1.88;;;;;;;;;;5059649;28;20032;-81
2021/08/03 14:01:29;;;;;;;7.85;2.40;;;;;;;;;;5076568;28;20050;-81
2021/08/03 14:03:55;;;;;;;4.97;2.35;;;;;;;;;;5096083;28;20036;-81
2021/08/03 14:06:22;;;;;;;5.80;2.08;;;;;;;;;;5077640;28;20040;-81
2021/08/03 14:08:48;;;;;;;4.80;2.28;;;;;;;;;;5094696;28;20076;-81
2021/08/03 14:11:14;;;;;;;3.60;2.33;;;;;;;;;;5077637;28;20098;-82
2021/08/03 14:13:39;;;;;;;4.20;2.38;;;;;;;;;;5093921;28;20047;-81
2021/08/03 14:16:08;;;;;;;3.47;1.80;;;;;;;;;;5061803;28;20044;-81
2021/08/03 14:18:35;;;;;;;4.43;2.03;;;;;;;;;;5061987;28;20029;-81
2021/08/03 14:21:01;;;;;;;5.82;2.20;;;;;;;;;;5078923;28;20036;-81
2021/08/03 14:23:27;;;;;;;3.22;1.88;;;;;;;;;;5078629;28;20470;-81
2021/08/03 14:25:53;;;;;;;5.47;2.70;;;;;;;;;;5078367;28;20047;-81
2021/08/03 14:28:19;;;;;;;6.68;2.78;;;;;;;;;;5061619;28;20509;-81
2021/08/03 14:30:44;;;;;;;4.15;2.50;;;;;;;;;;5064865;28;20036;-81
2021/08/03 14:33:10;;;;;;;5.38;3.00;;;;;;;;;;5065450;28;20044;-81
2021/08/03 14:35:35;;;;;;;2.55;2.20;;;;;;;;;;5066526;28;20024;-81
2021/08/03 14:38:02;;;;;;;4.05;2.15;;;;;;;;;;5065809;28;20127;-81
2021/08/03 14:40:28;;;;;;;7.25;2.55;;;;;;;;;;5082376;28;20066;-81
2021/08/03 14:42:53;;;;;;;5.22;2.35;;;;;;;;;;5065929;28;20067;-81
2021/08/03 14:45:19;;;;;;;5.78;2.30;;;;;;;;;;5117414;28;20045;-81
2021/08/03 14:47:45;;;;;;;3.92;2.15;;;;;;;;;;5122997;28;20408;-81
2021/08/03 14:50:11;;;;;;;3.42;2.25;;;;;;;;;;5106113;28;20122;-81
2021/08/03 14:52:37;;;;;;;9.80;2.40;;;;;;;;;;5105932;28;20362;-81
2021/08/03 14:55:02;;;;;;;3.63;2.00;;;;;;;;;;5105638;28;20046;-82